sensor_id;sensor_type;location;lat;lon;timestamp;pressure;altitude;pressure_sealevel;temperature;humidity
15694;BME280;7947;48.834;9.132;2023-08-31T00:02:21;97649.31;;;15.17;95.24
15694;BME280;7947;48.834;9.132;2023-08-31T00:05:24;97647.06;;;15.19;95.12
15694;BME280;7947;48.834;9.132;2023-08-31T00:08:29;97639.16;;;15.23;94.99
15694;BME280;7947;48.834;9.132;2023-08-31T00:11:32;97640.25;;;15.22;95.16
15694;BME280;7947;48.834;9.132;2023-08-31T00:14:36;97635.66;;;15.22;94.88
15694;BME280;7947;48.834;9.132;2023-08-31T00:17:39;97646.63;;;15.17;94.12
15694;BME280;7947;48.834;9.132;2023-08-31T00:20:42;97649.31;;;15.17;94.21
15694;BME280;7947;48.834;9.132;2023-08-31T00:23:45;97647.09;;;15.11;94.32
15694;BME280;7947;48.834;9.132;2023-08-31T00:26:48;97658.22;;;15.09;93.73
15694;BME280;7947;48.834;9.132;2023-08-31T00:29:54;97669.63;;;15.06;93.16
15694;BME280;7947;48.834;9.132;2023-08-31T00:32:57;97668.97;;;15.01;93.09
15694;BME280;7947;48.834;9.132;2023-08-31T00:36:01;97665.47;;;14.92;92.96
15694;BME280;7947;48.834;9.132;2023-08-31T00:39:05;97662.28;;;14.90;93.20
15694;BME280;7947;48.834;9.132;2023-08-31T00:42:10;97678.00;;;14.88;92.75
15694;BME280;7947;48.834;9.132;2023-08-31T00:45:14;97677.50;;;14.86;92.68
15694;BME280;7947;48.834;9.132;2023-08-31T00:48:17;97675.44;;;14.83;92.48
15694;BME280;7947;48.834;9.132;2023-08-31T00:51:20;97681.78;;;14.87;92.46
15694;BME280;7947;48.834;9.132;2023-08-31T00:54:23;97677.34;;;14.82;92.58
15694;BME280;7947;48.834;9.132;2023-08-31T00:57:27;97672.72;;;14.83;92.87
15694;BME280;7947;48.834;9.132;2023-08-31T01:00:37;97672.72;;;14.83;93.37
15694;BME280;7947;48.834;9.132;2023-08-31T01:03:49;97657.31;;;14.75;94.42
15694;BME280;7947;48.834;9.132;2023-08-31T01:07:00;97656.53;;;14.74;94.05
15694;BME280;7947;48.834;9.132;2023-08-31T01:10:12;97658.41;;;14.65;93.82
15694;BME280;7947;48.834;9.132;2023-08-31T01:13:20;97666.78;;;14.55;93.72
15694;BME280;7947;48.834;9.132;2023-08-31T01:16:26;97666.72;;;14.46;93.33
15694;BME280;7947;48.834;9.132;2023-08-31T01:19:41;97675.13;;;14.45;93.28
15694;BME280;7947;48.834;9.132;2023-08-31T01:22:57;97670.81;;;14.35;93.10
15694;BME280;7947;48.834;9.132;2023-08-31T01:26:03;97670.84;;;14.22;93.27
15694;BME280;7947;48.834;9.132;2023-08-31T01:29:05;97679.81;;;14.09;93.54
15694;BME280;7947;48.834;9.132;2023-08-31T01:32:08;97675.03;;;14.06;93.35
15694;BME280;7947;48.834;9.132;2023-08-31T01:35:14;97680.56;;;14.01;92.83
15694;BME280;7947;48.834;9.132;2023-08-31T01:38:19;97683.81;;;13.89;93.14
15694;BME280;7947;48.834;9.132;2023-08-31T01:41:26;97689.69;;;13.91;92.82
15694;BME280;7947;48.834;9.132;2023-08-31T01:44:32;97697.72;;;13.83;93.03
15694;BME280;7947;48.834;9.132;2023-08-31T01:47:36;97706.03;;;13.73;93.07
15694;BME280;7947;48.834;9.132;2023-08-31T01:50:39;97717.25;;;13.66;93.56
15694;BME280;7947;48.834;9.132;2023-08-31T01:53:42;97714.06;;;13.64;94.13
15694;BME280;7947;48.834;9.132;2023-08-31T01:56:47;97719.81;;;13.71;94.68
15694;BME280;7947;48.834;9.132;2023-08-31T01:59:50;97718.22;;;13.70;95.48
15694;BME280;7947;48.834;9.132;2023-08-31T02:02:53;97717.00;;;13.76;95.92
15694;BME280;7947;48.834;9.132;2023-08-31T02:05:56;97712.16;;;13.87;96.16
15694;BME280;7947;48.834;9.132;2023-08-31T02:08:59;97705.25;;;13.94;96.14
15694;BME280;7947;48.834;9.132;2023-08-31T02:12:04;97702.84;;;13.93;96.50
15694;BME280;7947;48.834;9.132;2023-08-31T02:15:07;97694.94;;;13.96;96.65
15694;BME280;7947;48.834;9.132;2023-08-31T02:18:10;97703.53;;;13.98;96.20
15694;BME280;7947;48.834;9.132;2023-08-31T02:21:13;97705.25;;;13.94;96.60
15694;BME280;7947;48.834;9.132;2023-08-31T02:24:16;97704.44;;;13.94;97.07
15694;BME280;7947;48.834;9.132;2023-08-31T02:27:20;97707.63;;;13.96;97.27
15694;BME280;7947;48.834;9.132;2023-08-31T02:30:23;97707.63;;;13.96;97.38
15694;BME280;7947;48.834;9.132;2023-08-31T02:33:26;97702.13;;;14.01;97.67
15694;BME280;7947;48.834;9.132;2023-08-31T02:36:28;97699.94;;;14.03;97.86
15694;BME280;7947;48.834;9.132;2023-08-31T02:39:31;97712.97;;;14.09;98.04
15694;BME280;7947;48.834;9.132;2023-08-31T02:42:35;97718.84;;;14.11;97.93
15694;BME280;7947;48.834;9.132;2023-08-31T02:45:38;97720.13;;;14.14;98.02
15694;BME280;7947;48.834;9.132;2023-08-31T02:48:41;97724.63;;;14.18;98.55
15694;BME280;7947;48.834;9.132;2023-08-31T02:51:44;97725.41;;;14.19;98.54
15694;BME280;7947;48.834;9.132;2023-08-31T02:54:47;97725.78;;;14.26;98.61
15694;BME280;7947;48.834;9.132;2023-08-31T02:57:51;97726.88;;;14.25;98.42
15694;BME280;7947;48.834;9.132;2023-08-31T03:00:54;97717.69;;;14.26;98.17
15694;BME280;7947;48.834;9.132;2023-08-31T03:03:57;97720.09;;;14.27;98.46
15694;BME280;7947;48.834;9.132;2023-08-31T03:07:00;97727.88;;;14.29;98.23
15694;BME280;7947;48.834;9.132;2023-08-31T03:10:03;97730.56;;;14.29;98.21
15694;BME280;7947;48.834;9.132;2023-08-31T03:13:07;97730.88;;;14.27;98.02
15694;BME280;7947;48.834;9.132;2023-08-31T03:16:11;97730.38;;;14.25;97.94
15694;BME280;7947;48.834;9.132;2023-08-31T03:19:14;97728.78;;;14.24;97.11
15694;BME280;7947;48.834;9.132;2023-08-31T03:22:16;97731.00;;;14.22;97.14
15694;BME280;7947;48.834;9.132;2023-08-31T03:25:19;97731.59;;;14.19;96.80
15694;BME280;7947;48.834;9.132;2023-08-31T03:28:23;97743.19;;;14.20;96.25
15694;BME280;7947;48.834;9.132;2023-08-31T03:31:26;97747.78;;;14.19;96.20
15694;BME280;7947;48.834;9.132;2023-08-31T03:34:29;97740.16;;;14.21;96.57
15694;BME280;7947;48.834;9.132;2023-08-31T03:37:32;97735.41;;;14.18;96.10
15694;BME280;7947;48.834;9.132;2023-08-31T03:40:35;97744.59;;;14.17;96.25
15694;BME280;7947;48.834;9.132;2023-08-31T03:43:39;97746.00;;;14.15;96.16
15694;BME280;7947;48.834;9.132;2023-08-31T03:46:43;97742.03;;;14.12;96.41
15694;BME280;7947;48.834;9.132;2023-08-31T03:49:46;97740.22;;;14.08;96.61
15694;BME280;7947;48.834;9.132;2023-08-31T03:52:48;97748.63;;;14.06;96.77
15694;BME280;7947;48.834;9.132;2023-08-31T03:55:51;97761.63;;;14.04;96.69
15694;BME280;7947;48.834;9.132;2023-08-31T03:58:56;97762.53;;;14.00;97.05
15694;BME280;7947;48.834;9.132;2023-08-31T04:01:58;97768.91;;;14.04;97.14
15694;BME280;7947;48.834;9.132;2023-08-31T04:05:01;97783.81;;;14.01;97.01
15694;BME280;7947;48.834;9.132;2023-08-31T04:08:07;97763.84;;;14.02;97.20
15694;BME280;7947;48.834;9.132;2023-08-31T04:11:11;97769.72;;;14.04;97.03
15694;BME280;7947;48.834;9.132;2023-08-31T04:14:15;97777.19;;;14.07;97.05
15694;BME280;7947;48.834;9.132;2023-08-31T04:17:18;97774.38;;;14.12;97.26
15694;BME280;7947;48.834;9.132;2023-08-31T04:20:21;97767.09;;;14.13;97.00
15694;BME280;7947;48.834;9.132;2023-08-31T04:23:24;97770.06;;;14.11;97.00
15694;BME280;7947;48.834;9.132;2023-08-31T04:26:27;97772.00;;;14.11;97.04
15694;BME280;7947;48.834;9.132;2023-08-31T04:29:32;97778.16;;;14.11;96.42
15694;BME280;7947;48.834;9.132;2023-08-31T04:32:35;97784.19;;;14.08;96.46
15694;BME280;7947;48.834;9.132;2023-08-31T04:35:38;97789.41;;;14.05;96.69
15694;BME280;7947;48.834;9.132;2023-08-31T04:38:40;97787.28;;;14.02;96.22
15694;BME280;7947;48.834;9.132;2023-08-31T04:41:43;97789.63;;;13.95;96.22
15694;BME280;7947;48.834;9.132;2023-08-31T04:44:47;97788.94;;;13.89;96.66
15694;BME280;7947;48.834;9.132;2023-08-31T04:47:50;97786.25;;;13.89;97.11
15694;BME280;7947;48.834;9.132;2023-08-31T04:50:56;97794.19;;;13.94;96.88
15694;BME280;7947;48.834;9.132;2023-08-31T04:53:59;97800.59;;;13.98;96.14
15694;BME280;7947;48.834;9.132;2023-08-31T04:57:02;97796.31;;;13.97;96.14
15694;BME280;7947;48.834;9.132;2023-08-31T05:00:08;97797.88;;;13.98;96.37
15694;BME280;7947;48.834;9.132;2023-08-31T05:03:11;97795.19;;;13.98;96.49
15694;BME280;7947;48.834;9.132;2023-08-31T05:06:15;97800.41;;;13.95;96.35
15694;BME280;7947;48.834;9.132;2023-08-31T05:09:17;97802.28;;;13.94;96.36
15694;BME280;7947;48.834;9.132;2023-08-31T05:12:20;97815.47;;;13.96;96.50
15694;BME280;7947;48.834;9.132;2023-08-31T05:15:25;97808.69;;;13.98;96.34
15694;BME280;7947;48.834;9.132;2023-08-31T05:18:29;97812.97;;;13.99;96.06
15694;BME280;7947;48.834;9.132;2023-08-31T05:21:31;97821.66;;;13.96;95.90
15694;BME280;7947;48.834;9.132;2023-08-31T05:24:34;97831.75;;;13.91;96.31
15694;BME280;7947;48.834;9.132;2023-08-31T05:27:37;97827.06;;;13.96;96.33
15694;BME280;7947;48.834;9.132;2023-08-31T05:30:48;97827.72;;;14.02;96.29
15694;BME280;7947;48.834;9.132;2023-08-31T05:33:52;97834.72;;;14.03;96.28
15694;BME280;7947;48.834;9.132;2023-08-31T05:36:56;97833.94;;;14.02;96.15
15694;BME280;7947;48.834;9.132;2023-08-31T05:39:58;97848.91;;;14.08;97.08
15694;BME280;7947;48.834;9.132;2023-08-31T05:43:02;97840.50;;;14.10;96.87
15694;BME280;7947;48.834;9.132;2023-08-31T05:46:07;97845.41;;;14.08;97.13
15694;BME280;7947;48.834;9.132;2023-08-31T05:49:10;97853.78;;;14.06;97.00
15694;BME280;7947;48.834;9.132;2023-08-31T05:52:13;97846.28;;;14.03;96.91
15694;BME280;7947;48.834;9.132;2023-08-31T05:55:16;97849.69;;;14.09;96.96
15694;BME280;7947;48.834;9.132;2023-08-31T05:58:19;97853.66;;;14.11;96.93
15694;BME280;7947;48.834;9.132;2023-08-31T06:01:23;97855.88;;;14.09;97.06
15694;BME280;7947;48.834;9.132;2023-08-31T06:04:26;97846.50;;;14.07;97.25
15694;BME280;7947;48.834;9.132;2023-08-31T06:07:29;97847.19;;;14.12;97.28
15694;BME280;7947;48.834;9.132;2023-08-31T06:10:32;97856.28;;;14.16;97.01
15694;BME280;7947;48.834;9.132;2023-08-31T06:13:34;97853.25;;;14.18;97.21
15694;BME280;7947;48.834;9.132;2023-08-31T06:16:39;97860.44;;;14.22;96.88
15694;BME280;7947;48.834;9.132;2023-08-31T06:19:42;97862.22;;;14.27;95.97
15694;BME280;7947;48.834;9.132;2023-08-31T06:22:45;97859.81;;;14.25;95.92
15694;BME280;7947;48.834;9.132;2023-08-31T06:25:47;97868.94;;;14.29;96.28
15694;BME280;7947;48.834;9.132;2023-08-31T06:28:50;97873.78;;;14.41;96.04
15694;BME280;7947;48.834;9.132;2023-08-31T06:31:55;97878.81;;;14.56;95.99
15694;BME280;7947;48.834;9.132;2023-08-31T06:34:58;97880.25;;;14.76;95.27
15694;BME280;7947;48.834;9.132;2023-08-31T06:38:00;97881.97;;;14.94;92.25
15694;BME280;7947;48.834;9.132;2023-08-31T06:41:03;97888.94;;;15.17;91.66
15694;BME280;7947;48.834;9.132;2023-08-31T06:44:06;97892.06;;;15.41;89.80
15694;BME280;7947;48.834;9.132;2023-08-31T06:47:10;97898.91;;;15.78;87.25
15694;BME280;7947;48.834;9.132;2023-08-31T06:50:15;97895.16;;;16.13;85.36
15694;BME280;7947;48.834;9.132;2023-08-31T06:53:18;97894.72;;;16.28;84.96
15694;BME280;7947;48.834;9.132;2023-08-31T06:56:21;97901.22;;;16.36;82.87
15694;BME280;7947;48.834;9.132;2023-08-31T06:59:24;97888.72;;;16.57;83.34
15694;BME280;7947;48.834;9.132;2023-08-31T07:02:29;97898.91;;;16.85;81.59
15694;BME280;7947;48.834;9.132;2023-08-31T07:05:33;97898.38;;;16.92;80.13
15694;BME280;7947;48.834;9.132;2023-08-31T07:08:38;97898.56;;;16.78;79.83
15694;BME280;7947;48.834;9.132;2023-08-31T07:11:42;97903.03;;;16.57;80.90
15694;BME280;7947;48.834;9.132;2023-08-31T07:14:45;97906.50;;;16.41;81.54
15694;BME280;7947;48.834;9.132;2023-08-31T07:17:49;97908.25;;;16.28;81.96
15694;BME280;7947;48.834;9.132;2023-08-31T07:20:52;97910.78;;;16.24;82.55
15694;BME280;7947;48.834;9.132;2023-08-31T07:23:55;97907.16;;;16.46;82.78
15694;BME280;7947;48.834;9.132;2023-08-31T07:26:58;97909.88;;;16.80;81.24
15694;BME280;7947;48.834;9.132;2023-08-31T07:30:01;97916.69;;;17.03;79.94
15694;BME280;7947;48.834;9.132;2023-08-31T07:33:07;97918.09;;;17.27;78.62
15694;BME280;7947;48.834;9.132;2023-08-31T07:36:30;97927.31;;;17.51;75.52
15694;BME280;7947;48.834;9.132;2023-08-31T07:39:33;97931.22;;;17.71;74.79
15694;BME280;7947;48.834;9.132;2023-08-31T07:42:36;97936.38;;;17.93;74.40
15694;BME280;7947;48.834;9.132;2023-08-31T07:45:39;97932.28;;;18.16;74.23
15694;BME280;7947;48.834;9.132;2023-08-31T07:48:43;97928.47;;;18.38;71.50
15694;BME280;7947;48.834;9.132;2023-08-31T07:51:46;97932.88;;;18.51;70.66
15694;BME280;7947;48.834;9.132;2023-08-31T07:54:49;97935.44;;;18.68;69.00
15694;BME280;7947;48.834;9.132;2023-08-31T07:57:52;97933.22;;;18.90;68.16
15694;BME280;7947;48.834;9.132;2023-08-31T08:00:55;97938.94;;;19.10;68.28
15694;BME280;7947;48.834;9.132;2023-08-31T08:04:00;97929.78;;;19.14;65.86
15694;BME280;7947;48.834;9.132;2023-08-31T08:07:03;97930.91;;;19.46;62.73
15694;BME280;7947;48.834;9.132;2023-08-31T08:10:07;97929.41;;;19.36;60.83
15694;BME280;7947;48.834;9.132;2023-08-31T08:13:10;97931.16;;;19.20;56.53
15694;BME280;7947;48.834;9.132;2023-08-31T08:16:14;97932.97;;;19.16;56.63
15694;BME280;7947;48.834;9.132;2023-08-31T08:19:22;97942.31;;;19.07;58.14
15694;BME280;7947;48.834;9.132;2023-08-31T08:22:25;97948.03;;;18.93;59.44
15694;BME280;7947;48.834;9.132;2023-08-31T08:25:28;97953.28;;;18.57;57.34
15694;BME280;7947;48.834;9.132;2023-08-31T08:28:31;97940.75;;;18.44;59.68
15694;BME280;7947;48.834;9.132;2023-08-31T08:31:34;97949.38;;;18.46;61.45
15694;BME280;7947;48.834;9.132;2023-08-31T08:34:39;97956.09;;;18.40;63.99
15694;BME280;7947;48.834;9.132;2023-08-31T08:37:42;97958.06;;;18.31;61.09
15694;BME280;7947;48.834;9.132;2023-08-31T08:40:45;97953.94;;;18.54;62.94
15694;BME280;7947;48.834;9.132;2023-08-31T08:43:48;97959.25;;;18.71;62.96
15694;BME280;7947;48.834;9.132;2023-08-31T08:46:53;97960.78;;;18.60;62.72
15694;BME280;7947;48.834;9.132;2023-08-31T08:49:59;97963.59;;;18.43;60.25
15694;BME280;7947;48.834;9.132;2023-08-31T08:53:04;97964.28;;;18.31;61.61
15694;BME280;7947;48.834;9.132;2023-08-31T08:56:07;97962.25;;;18.20;65.58
15694;BME280;7947;48.834;9.132;2023-08-31T08:59:10;97961.78;;;18.18;66.09
15694;BME280;7947;48.834;9.132;2023-08-31T09:02:15;97966.00;;;18.07;67.61
15694;BME280;7947;48.834;9.132;2023-08-31T09:05:19;97971.78;;;17.96;66.85
15694;BME280;7947;48.834;9.132;2023-08-31T09:08:26;97973.09;;;17.90;65.24
15694;BME280;7947;48.834;9.132;2023-08-31T09:11:30;97986.56;;;17.78;62.36
15694;BME280;7947;48.834;9.132;2023-08-31T09:14:33;97985.28;;;17.76;63.61
15694;BME280;7947;48.834;9.132;2023-08-31T09:17:41;97982.72;;;17.79;64.58
15694;BME280;7947;48.834;9.132;2023-08-31T09:20:47;97984.66;;;18.08;61.58
15694;BME280;7947;48.834;9.132;2023-08-31T09:23:55;97986.28;;;18.38;56.38
15694;BME280;7947;48.834;9.132;2023-08-31T09:26:59;97986.22;;;18.55;55.00
15694;BME280;7947;48.834;9.132;2023-08-31T09:30:02;97983.03;;;18.53;55.12
15694;BME280;7947;48.834;9.132;2023-08-31T09:33:06;97991.53;;;18.72;55.00
15694;BME280;7947;48.834;9.132;2023-08-31T09:36:11;97990.72;;;18.72;53.26
15694;BME280;7947;48.834;9.132;2023-08-31T09:39:14;97988.28;;;19.00;56.39
15694;BME280;7947;48.834;9.132;2023-08-31T09:42:17;97982.00;;;19.40;55.68
15694;BME280;7947;48.834;9.132;2023-08-31T09:45:25;97991.88;;;19.77;54.20
15694;BME280;7947;48.834;9.132;2023-08-31T09:48:45;97985.09;;;20.08;50.97
15694;BME280;7947;48.834;9.132;2023-08-31T09:51:50;97978.06;;;20.31;52.18
15694;BME280;7947;48.834;9.132;2023-08-31T09:54:54;97978.53;;;20.45;51.40
15694;BME280;7947;48.834;9.132;2023-08-31T09:57:59;97990.09;;;20.54;48.89
15694;BME280;7947;48.834;9.132;2023-08-31T10:01:16;97987.09;;;20.83;47.73
15694;BME280;7947;48.834;9.132;2023-08-31T10:04:31;97985.13;;;21.08;47.09
15694;BME280;7947;48.834;9.132;2023-08-31T10:07:39;97983.09;;;21.32;47.48
15694;BME280;7947;48.834;9.132;2023-08-31T10:10:42;97984.03;;;21.52;45.35
15694;BME280;7947;48.834;9.132;2023-08-31T10:13:45;97986.94;;;21.31;44.57
15694;BME280;7947;48.834;9.132;2023-08-31T10:16:50;97991.88;;;20.86;43.95
15694;BME280;7947;48.834;9.132;2023-08-31T10:19:55;97993.97;;;20.41;45.67
15694;BME280;7947;48.834;9.132;2023-08-31T10:23:02;98004.03;;;20.04;46.68
15694;BME280;7947;48.834;9.132;2023-08-31T10:26:06;97998.69;;;19.84;46.50
15694;BME280;7947;48.834;9.132;2023-08-31T10:29:25;98004.28;;;19.54;49.44
15694;BME280;7947;48.834;9.132;2023-08-31T10:32:30;98008.28;;;19.36;50.37
15694;BME280;7947;48.834;9.132;2023-08-31T10:35:41;98011.38;;;19.26;49.74
15694;BME280;7947;48.834;9.132;2023-08-31T10:38:46;98009.69;;;19.01;51.15
15694;BME280;7947;48.834;9.132;2023-08-31T10:41:54;98009.16;;;18.87;51.42
15694;BME280;7947;48.834;9.132;2023-08-31T10:45:05;97999.66;;;18.93;52.04
15694;BME280;7947;48.834;9.132;2023-08-31T10:48:08;98004.31;;;18.92;52.23
15694;BME280;7947;48.834;9.132;2023-08-31T10:51:16;98008.09;;;19.00;52.49
15694;BME280;7947;48.834;9.132;2023-08-31T10:54:23;98004.72;;;19.03;50.69
15694;BME280;7947;48.834;9.132;2023-08-31T10:57:29;97996.03;;;19.10;51.96
15694;BME280;7947;48.834;9.132;2023-08-31T11:00:51;97993.84;;;19.03;52.81
15694;BME280;7947;48.834;9.132;2023-08-31T11:03:57;97998.28;;;19.08;51.18
15694;BME280;7947;48.834;9.132;2023-08-31T11:07:15;98005.84;;;19.02;53.30
15694;BME280;7947;48.834;9.132;2023-08-31T11:10:21;98005.28;;;19.29;51.71
15694;BME280;7947;48.834;9.132;2023-08-31T11:13:25;98001.16;;;19.76;53.95
15694;BME280;7947;48.834;9.132;2023-08-31T11:16:29;97988.53;;;20.41;54.53
15694;BME280;7947;48.834;9.132;2023-08-31T11:19:34;97986.88;;;20.76;50.00
15694;BME280;7947;48.834;9.132;2023-08-31T11:22:41;97985.44;;;20.66;48.89
15694;BME280;7947;48.834;9.132;2023-08-31T11:25:47;97993.06;;;20.25;49.16
15694;BME280;7947;48.834;9.132;2023-08-31T11:28:50;97991.09;;;20.01;50.05
15694;BME280;7947;48.834;9.132;2023-08-31T11:31:52;97986.56;;;20.17;50.09
15694;BME280;7947;48.834;9.132;2023-08-31T11:34:55;97980.25;;;20.25;50.01
15694;BME280;7947;48.834;9.132;2023-08-31T11:37:58;97981.28;;;20.21;51.01
15694;BME280;7947;48.834;9.132;2023-08-31T11:41:04;97979.13;;;20.26;52.94
15694;BME280;7947;48.834;9.132;2023-08-31T11:44:07;97976.50;;;20.30;50.73
15694;BME280;7947;48.834;9.132;2023-08-31T11:47:11;97971.59;;;20.59;51.83
15694;BME280;7947;48.834;9.132;2023-08-31T11:50:16;97978.00;;;20.79;49.55
15694;BME280;7947;48.834;9.132;2023-08-31T11:53:19;97974.63;;;20.82;50.08
15694;BME280;7947;48.834;9.132;2023-08-31T11:56:23;97964.19;;;20.72;50.29
15694;BME280;7947;48.834;9.132;2023-08-31T11:59:26;97968.88;;;20.59;50.07
15694;BME280;7947;48.834;9.132;2023-08-31T12:02:34;97973.88;;;20.45;52.55
15694;BME280;7947;48.834;9.132;2023-08-31T12:05:47;97969.13;;;20.30;48.46
15694;BME280;7947;48.834;9.132;2023-08-31T12:08:50;97975.44;;;20.10;49.26
15694;BME280;7947;48.834;9.132;2023-08-31T12:11:55;97977.81;;;20.00;49.00
15694;BME280;7947;48.834;9.132;2023-08-31T12:14:57;97983.25;;;19.88;50.77
15694;BME280;7947;48.834;9.132;2023-08-31T12:18:07;97983.25;;;19.75;50.02
15694;BME280;7947;48.834;9.132;2023-08-31T12:21:10;97973.94;;;19.76;50.23
15694;BME280;7947;48.834;9.132;2023-08-31T12:24:13;97971.91;;;19.86;50.66
15694;BME280;7947;48.834;9.132;2023-08-31T12:27:20;97967.97;;;20.43;52.43
15694;BME280;7947;48.834;9.132;2023-08-31T12:30:23;97959.34;;;20.93;49.74
15694;BME280;7947;48.834;9.132;2023-08-31T12:33:27;97968.97;;;21.42;47.77
15694;BME280;7947;48.834;9.132;2023-08-31T12:36:30;97963.19;;;21.60;45.22
15694;BME280;7947;48.834;9.132;2023-08-31T12:39:33;97966.88;;;21.67;46.29
15694;BME280;7947;48.834;9.132;2023-08-31T12:42:38;97966.34;;;21.62;48.55
15694;BME280;7947;48.834;9.132;2023-08-31T12:45:41;97967.13;;;21.46;47.05
15694;BME280;7947;48.834;9.132;2023-08-31T12:48:44;97963.97;;;21.17;47.74
15694;BME280;7947;48.834;9.132;2023-08-31T12:51:47;97959.59;;;20.88;48.99
15694;BME280;7947;48.834;9.132;2023-08-31T12:54:50;97966.91;;;20.60;48.86
15694;BME280;7947;48.834;9.132;2023-08-31T12:57:54;97973.88;;;20.57;50.31
15694;BME280;7947;48.834;9.132;2023-08-31T13:00:58;97961.94;;;20.62;50.20
15694;BME280;7947;48.834;9.132;2023-08-31T13:04:01;97968.97;;;20.63;51.01
15694;BME280;7947;48.834;9.132;2023-08-31T13:07:04;97972.47;;;20.63;50.45
15694;BME280;7947;48.834;9.132;2023-08-31T13:10:08;97967.38;;;20.50;50.19
15694;BME280;7947;48.834;9.132;2023-08-31T13:13:12;97975.34;;;20.67;51.02
15694;BME280;7947;48.834;9.132;2023-08-31T13:16:15;97964.81;;;20.93;50.50
15694;BME280;7947;48.834;9.132;2023-08-31T13:19:18;97965.03;;;21.28;48.64
15694;BME280;7947;48.834;9.132;2023-08-31T13:22:21;97961.50;;;21.55;48.70
15694;BME280;7947;48.834;9.132;2023-08-31T13:25:24;97960.09;;;21.77;46.77
15694;BME280;7947;48.834;9.132;2023-08-31T13:28:29;97958.31;;;21.96;47.27
15694;BME280;7947;48.834;9.132;2023-08-31T13:31:33;97955.81;;;21.91;45.49
15694;BME280;7947;48.834;9.132;2023-08-31T13:34:36;97956.25;;;22.09;47.01
15694;BME280;7947;48.834;9.132;2023-08-31T13:37:39;97952.38;;;22.10;45.92
15694;BME280;7947;48.834;9.132;2023-08-31T13:40:43;97955.47;;;21.93;47.02
15694;BME280;7947;48.834;9.132;2023-08-31T13:43:47;97941.97;;;21.69;44.87
15694;BME280;7947;48.834;9.132;2023-08-31T13:46:50;97943.34;;;21.47;46.58
15694;BME280;7947;48.834;9.132;2023-08-31T13:49:53;97941.88;;;21.22;45.87
15694;BME280;7947;48.834;9.132;2023-08-31T13:52:56;97941.94;;;21.10;47.48
15694;BME280;7947;48.834;9.132;2023-08-31T13:56:00;97947.53;;;20.89;47.42
15694;BME280;7947;48.834;9.132;2023-08-31T13:59:04;97941.13;;;20.69;48.68
15694;BME280;7947;48.834;9.132;2023-08-31T14:02:07;97939.47;;;20.53;48.24
15694;BME280;7947;48.834;9.132;2023-08-31T14:05:10;97949.63;;;20.28;49.12
15694;BME280;7947;48.834;9.132;2023-08-31T14:08:13;97946.19;;;20.07;50.67
15694;BME280;7947;48.834;9.132;2023-08-31T14:11:16;97939.03;;;19.91;51.04
15694;BME280;7947;48.834;9.132;2023-08-31T14:14:21;97955.34;;;19.78;51.31
15694;BME280;7947;48.834;9.132;2023-08-31T14:17:23;97952.94;;;19.65;53.47
15694;BME280;7947;48.834;9.132;2023-08-31T14:20:27;97959.16;;;19.53;54.77
15694;BME280;7947;48.834;9.132;2023-08-31T14:23:30;97957.47;;;19.49;54.50
15694;BME280;7947;48.834;9.132;2023-08-31T14:26:33;97958.13;;;19.46;53.45
15694;BME280;7947;48.834;9.132;2023-08-31T14:29:37;97957.06;;;19.38;54.35
15694;BME280;7947;48.834;9.132;2023-08-31T14:32:41;97955.69;;;19.32;55.58
15694;BME280;7947;48.834;9.132;2023-08-31T14:35:43;97952.97;;;19.32;55.91
15694;BME280;7947;48.834;9.132;2023-08-31T14:38:46;97959.72;;;19.26;57.50
15694;BME280;7947;48.834;9.132;2023-08-31T14:41:49;97961.41;;;19.19;59.31
15694;BME280;7947;48.834;9.132;2023-08-31T14:44:54;97969.78;;;19.14;59.21
15694;BME280;7947;48.834;9.132;2023-08-31T14:47:56;97964.66;;;19.12;58.52
15694;BME280;7947;48.834;9.132;2023-08-31T14:50:59;97964.00;;;19.15;59.51
15694;BME280;7947;48.834;9.132;2023-08-31T14:54:02;97959.81;;;19.18;56.88
15694;BME280;7947;48.834;9.132;2023-08-31T14:57:05;97967.56;;;19.07;58.97
15694;BME280;7947;48.834;9.132;2023-08-31T15:00:11;97965.19;;;19.06;59.78
15694;BME280;7947;48.834;9.132;2023-08-31T15:03:15;97962.34;;;19.02;59.78
15694;BME280;7947;48.834;9.132;2023-08-31T15:06:18;97963.47;;;19.01;59.62
15694;BME280;7947;48.834;9.132;2023-08-31T15:09:21;97974.16;;;19.06;60.43
15694;BME280;7947;48.834;9.132;2023-08-31T15:12:24;97977.22;;;19.05;61.09
15694;BME280;7947;48.834;9.132;2023-08-31T15:15:28;97969.19;;;19.08;61.30
15694;BME280;7947;48.834;9.132;2023-08-31T15:18:31;97967.84;;;19.14;62.88
15694;BME280;7947;48.834;9.132;2023-08-31T15:21:34;97973.06;;;19.19;62.38
15694;BME280;7947;48.834;9.132;2023-08-31T15:24:37;97977.81;;;19.22;62.33
15694;BME280;7947;48.834;9.132;2023-08-31T15:27:44;97975.25;;;19.26;62.00
15694;BME280;7947;48.834;9.132;2023-08-31T15:30:48;97972.84;;;19.24;61.90
15694;BME280;7947;48.834;9.132;2023-08-31T15:33:51;97974.47;;;19.25;61.39
15694;BME280;7947;48.834;9.132;2023-08-31T15:36:54;97984.19;;;19.26;59.64
15694;BME280;7947;48.834;9.132;2023-08-31T15:39:57;97983.72;;;19.24;58.60
15694;BME280;7947;48.834;9.132;2023-08-31T15:43:00;97979.50;;;19.15;59.36
15694;BME280;7947;48.834;9.132;2023-08-31T15:46:05;97981.50;;;19.06;61.60
15694;BME280;7947;48.834;9.132;2023-08-31T15:49:08;97970.69;;;18.97;63.13
15694;BME280;7947;48.834;9.132;2023-08-31T15:52:11;97975.88;;;18.90;64.96
15694;BME280;7947;48.834;9.132;2023-08-31T15:55:14;97977.22;;;18.84;66.49
15694;BME280;7947;48.834;9.132;2023-08-31T15:58:17;97974.22;;;18.77;64.24
15694;BME280;7947;48.834;9.132;2023-08-31T16:01:21;97981.91;;;18.75;68.37
15694;BME280;7947;48.834;9.132;2023-08-31T16:04:24;97987.75;;;18.65;68.76
15694;BME280;7947;48.834;9.132;2023-08-31T16:07:27;97982.66;;;18.63;66.88
15694;BME280;7947;48.834;9.132;2023-08-31T16:10:30;97985.50;;;18.67;64.64
15694;BME280;7947;48.834;9.132;2023-08-31T16:13:33;97981.25;;;18.57;65.68
15694;BME280;7947;48.834;9.132;2023-08-31T16:16:39;97982.22;;;18.53;66.69
15694;BME280;7947;48.834;9.132;2023-08-31T16:19:43;97973.13;;;18.49;66.39
15694;BME280;7947;48.834;9.132;2023-08-31T16:22:46;97982.75;;;18.46;67.41
15694;BME280;7947;48.834;9.132;2023-08-31T16:25:49;97996.34;;;18.46;67.54
15694;BME280;7947;48.834;9.132;2023-08-31T16:28:52;97999.34;;;18.45;68.06